sensor_id;sensor_type;location;lat;lon;timestamp;temperature;humidity
54824;DHT22;40724;53.196;5.980;2024-01-15T12:37:13;13.90;95.10
54824;DHT22;40724;53.196;5.980;2024-01-15T12:39:39;10.80;99.90
54824;DHT22;40724;53.196;5.980;2024-01-15T12:42:08;10.70;99.90
54824;DHT22;40724;53.196;5.980;2024-01-15T12:49:28;10.40;99.60
54824;DHT22;40724;53.196;5.980;2024-01-15T12:56:47;9.60;99.90
54824;DHT22;40724;53.196;5.980;2024-01-15T12:59:13;9.20;99.90
54824;DHT22;40724;53.196;5.980;2024-01-15T13:01:39;8.90;99.90
54824;DHT22;40724;53.196;5.980;2024-01-15T13:06:34;8.60;99.90
54824;DHT22;40724;53.196;5.980;2024-01-15T13:09:00;8.20;99.90
54824;DHT22;40724;53.196;5.980;2024-01-15T13:11:27;8.00;99.90
54824;DHT22;40724;53.196;5.980;2024-01-15T13:23:39;7.90;99.90
54824;DHT22;40724;53.196;5.980;2024-01-15T13:26:04;9.80;99.90
54824;DHT22;40724;53.196;5.980;2024-01-15T13:28:31;10.10;99.90
54824;DHT22;40724;53.196;5.980;2024-01-15T13:30:56;10.30;99.90
54824;DHT22;40724;53.196;5.980;2024-01-15T13:33:22;10.40;99.90
54824;DHT22;40724;53.196;5.980;2024-01-15T13:35:48;10.40;99.90
54824;DHT22;40724;53.196;5.980;2024-01-15T13:38:16;10.20;99.90
54824;DHT22;40724;53.196;5.980;2024-01-15T13:40:42;10.00;99.90
54824;DHT22;40724;53.196;5.980;2024-01-15T13:43:11;9.80;99.90
54824;DHT22;40724;53.196;5.980;2024-01-15T13:45:37;9.60;99.90
54824;DHT22;40724;53.196;5.980;2024-01-15T13:48:04;9.40;99.90
54824;DHT22;40724;53.196;5.980;2024-01-15T13:50:34;9.20;99.90
54824;DHT22;40724;53.196;5.980;2024-01-15T13:53:02;9.00;99.90
54824;DHT22;40724;53.196;5.980;2024-01-15T13:55:29;8.80;99.90
54824;DHT22;40724;53.196;5.980;2024-01-15T13:57:55;9.00;99.90
54824;DHT22;40724;53.196;5.980;2024-01-15T14:00:21;9.80;99.90
54824;DHT22;40724;53.196;5.980;2024-01-15T14:02:47;10.80;99.90
54824;DHT22;40724;53.196;5.980;2024-01-15T14:05:13;11.60;99.50
54824;DHT22;40724;53.196;5.980;2024-01-15T14:12:33;11.90;98.60
54824;DHT22;40724;53.196;5.980;2024-01-15T14:15:03;11.20;98.10
54824;DHT22;40724;53.196;5.980;2024-01-15T14:17:30;11.00;98.20
54824;DHT22;40724;53.196;5.980;2024-01-15T14:19:56;10.70;98.30
54824;DHT22;40724;53.196;5.980;2024-01-15T14:22:22;10.50;98.40
54824;DHT22;40724;53.196;5.980;2024-01-15T14:24:48;10.30;98.60
54824;DHT22;40724;53.196;5.980;2024-01-15T14:27:14;10.10;98.70
54824;DHT22;40724;53.196;5.980;2024-01-15T14:29:40;9.80;98.70
54824;DHT22;40724;53.196;5.980;2024-01-15T14:34:32;9.60;98.70
54824;DHT22;40724;53.196;5.980;2024-01-15T14:41:56;8.60;99.20
54824;DHT22;40724;53.196;5.980;2024-01-15T14:44:22;8.50;99.20
54824;DHT22;40724;53.196;5.980;2024-01-15T15:11:21;8.40;99.10
